Susquehanna — WDD9976 — position and weather

sailwx.info

Track history (hours):
 
Tides and Currents Weather Stations Pressure Air Temp Water Temp Dewpoint Dewpoint Depression Visibility Wind Speed Wind Dir Waves Ship Positions

Susquehanna

Owner: Vane Line Bunkering, Inc., Philadelphia, PA. More information available from US FCC via Universal Licensing System and Coast Guard Vessel Documentation Center.

Last reported at 2018-Jan-21 13:07 UTC. Time now 2018-Jan-22 12:44 UTC.
Position N 40°31' W 073°45'.

Length 28 m; draft 4.2 m.

Type: Tug. MMSI: 367318750.

Date/timePositionNaut miles runAvg speedWind from/ knotsBaromVisibWave heightAir tempDewpointWater temp
2018-Jan-21 13:07N 40°31' W 073°45'2 7.0
2018-Jan-21 12:47N 40°30' W 073°49'2 6.8
2018-Jan-21 12:30N 40°29' W 073°50'3 6.4
2018-Jan-21 12:00N 40°26' W 073°53'3 6.3
2018-Jan-21 11:29N 40°23' W 073°55'9 7.4
2018-Jan-21 10:20N 40°15' W 073°55'26 7.6
2018-Jan-21 06:53N 39°49' W 073°58'3 7.5
2018-Jan-21 06:29N 39°46' W 073°58'4 7.5
2018-Jan-21 06:00N 39°42' W 074°00'4 7.3
2018-Jan-21 05:29N 39°39' W 074°02'4 7.4
2018-Jan-21 04:59N 39°36' W 074°05'4 7.5
2018-Jan-21 04:29N 39°32' W 074°07'66 4.6
2018-Jan-20 14:00N 39°34' W 075°33'42 8.5
2018-Jan-20 09:05N 39°10' W 076°18'1 8.6
2018-Jan-20 09:00N 39°10' W 076°18'10 8.3
2018-Jan-20 07:49N 39°12' W 076°31'3 9.2
2018-Jan-20 07:30N 39°14' W 076°33'1 2.2
2018-Jan-20 07:00N 39°15' W 076°34'0 0.0
2018-Jan-20 06:30N 39°15' W 076°34'0 0.0
2018-Jan-20 05:55N 39°15' W 076°34'0 0.0
2018-Jan-20 05:28N 39°15' W 076°34'0 0.0
2018-Jan-20 04:59N 39°15' W 076°34'0 0.0
2018-Jan-20 04:29N 39°15' W 076°34'0 0.0
2018-Jan-20 04:00N 39°15' W 076°34'0 0.0
2018-Jan-20 03:30N 39°15' W 076°34'0 0.0
2018-Jan-20 03:00N 39°15' W 076°34'0 0.0
2018-Jan-20 02:30N 39°15' W 076°34'0 0.0
2018-Jan-20 02:01N 39°15' W 076°34'0 0.0
2018-Jan-20 01:30N 39°15' W 076°34'0 0.0
2018-Jan-20 01:00N 39°15' W 076°34'0 0.0
2018-Jan-20 00:30N 39°15' W 076°34'0 0.0
2018-Jan-20 00:00N 39°15' W 076°34'0 0.0
2018-Jan-19 23:28N 39°15' W 076°34'0 0.0
2018-Jan-19 23:00N 39°15' W 076°34'0 0.0
2018-Jan-19 22:30N 39°15' W 076°34'0 0.0
2018-Jan-19 22:00N 39°15' W 076°34'0 0.0
2018-Jan-19 21:31N 39°15' W 076°34'0 0.0
2018-Jan-19 21:01N 39°15' W 076°34'0 0.0
2018-Jan-19 20:31N 39°15' W 076°34'0 0.0
2018-Jan-19 20:01N 39°15' W 076°34'0 0.0
2018-Jan-19 19:31N 39°15' W 076°34'0 0.0
2018-Jan-19 19:00N 39°15' W 076°34'0 0.0
2018-Jan-19 18:31N 39°15' W 076°34'1 1.1
2018-Jan-19 18:00N 39°15' W 076°34'0 0.7
2018-Jan-19 17:20N 39°15' W 076°33'0 0.0
2018-Jan-19 16:58N 39°15' W 076°33'0 0.0
2018-Jan-19 16:31N 39°15' W 076°33'0 0.0
2018-Jan-19 15:59N 39°15' W 076°33'0 0.1
2018-Jan-19 15:30N 39°15' W 076°33'0 0.1
2018-Jan-19 15:00N 39°15' W 076°33'0 0.3
2018-Jan-19 14:31N 39°16' W 076°33'1 2.1
2018-Jan-19 13:58N 39°15' W 076°34'0 0.0
2018-Jan-19 13:29N 39°15' W 076°34'0 0.0
2018-Jan-19 12:59N 39°15' W 076°34'0 0.7
2018-Jan-19 12:31N 39°15' W 076°34'0 0.3
2018-Jan-19 12:00N 39°15' W 076°34'3 5.2
2018-Jan-19 11:30N 39°13' W 076°32'4 7.7
2018-Jan-19 11:00N 39°11' W 076°28'4 9.0
2018-Jan-19 10:31N 39°08' W 076°24'4 8.8
2018-Jan-19 10:00N 39°03' W 076°23'4 8.8
2018-Jan-19 09:31N 38°59' W 076°23'4 8.8
2018-Jan-19 09:01N 38°55' W 076°24'4 8.9
2018-Jan-19 08:30N 38°50' W 076°25'8 8.8
2018-Jan-19 07:39N 38°43' W 076°27'108 8.2
2018-Jan-18 18:28N 36°55' W 076°20'4 8.9
2018-Jan-18 18:00N 36°51' W 076°18'1 2.7
2018-Jan-18 17:30N 36°50' W 076°17'0 0.2
2018-Jan-18 16:50N 36°50' W 076°17'0 0.0
2018-Jan-18 16:30N 36°50' W 076°17'0 0.5
2018-Jan-18 15:59N 36°50' W 076°17'0 0.4
2018-Jan-18 15:17N 36°50' W 076°17'0 0.0
2018-Jan-18 15:00N 36°50' W 076°17'0 0.0
2018-Jan-18 14:30N 36°50' W 076°17'0 0.1
2018-Jan-18 13:57N 36°50' W 076°17'0 0.1
2018-Jan-18 13:25N 36°50' W 076°17'0 0.1
2018-Jan-18 12:58N 36°50' W 076°17'0 0.0
2018-Jan-18 12:07N 36°50' W 076°17'0 0.0
2018-Jan-18 11:55N 36°50' W 076°17'0 0.0
2018-Jan-18 10:50N 36°50' W 076°17'0 0.0
2018-Jan-18 10:29N 36°50' W 076°17'0 0.0
2018-Jan-18 10:00N 36°50' W 076°17'0 0.0
2018-Jan-18 09:30N 36°50' W 076°17'0 0.0
2018-Jan-18 09:00N 36°50' W 076°17'0 0.0
2018-Jan-18 08:28N 36°50' W 076°17'0 0.0
2018-Jan-18 07:58N 36°50' W 076°17'0 0.0
2018-Jan-18 07:28N 36°50' W 076°17'0 0.0
2018-Jan-18 06:59N 36°50' W 076°17'0 0.0
2018-Jan-18 06:29N 36°50' W 076°17'0 0.0
2018-Jan-18 05:50N 36°50' W 076°17'0 0.0
2018-Jan-18 05:30N 36°50' W 076°17'0 0.0
2018-Jan-18 05:00N 36°50' W 076°17'0 0.0
2018-Jan-18 04:30N 36°50' W 076°17'0 0.0
2018-Jan-18 03:58N 36°50' W 076°17'0 0.0
2018-Jan-18 03:28N 36°50' W 076°17'0 0.0
2018-Jan-18 02:55N 36°50' W 076°17'0 0.0
2018-Jan-18 02:29N 36°50' W 076°17'0 0.0
2018-Jan-18 01:59N 36°50' W 076°17'0 0.0
2018-Jan-18 01:29N 36°50' W 076°17'0 0.0
2018-Jan-18 01:00N 36°50' W 076°17'0 0.0
2018-Jan-18 00:00N 36°50' W 076°17'0 0.0
2018-Jan-17 23:57N 36°50' W 076°17'  
Track history (hours):
 
Tides and Currents Weather Stations Pressure Air Temp Water Temp Dewpoint Dewpoint Depression Visibility Wind Speed Wind Dir Waves Ship Positions

Susquehanna

Owner: Vane Line Bunkering, Inc., Philadelphia, PA. More information available from US FCC via Universal Licensing System and Coast Guard Vessel Documentation Center.

Last reported at 2018-Jan-21 13:07 UTC. Time now 2018-Jan-22 12:44 UTC.
Position N 40°31' W 073°45'.

Length 28 m; draft 4.2 m.

Type: Tug. MMSI: 367318750.

Date/timePositionNaut miles runAvg speedWind from/ knotsBaromVisibWave heightAir tempDewpointWater temp
2018-Jan-21 13:07N 40°31' W 073°45'2 7.0
2018-Jan-21 12:47N 40°30' W 073°49'2 6.8
2018-Jan-21 12:30N 40°29' W 073°50'3 6.4
2018-Jan-21 12:00N 40°26' W 073°53'3 6.3
2018-Jan-21 11:29N 40°23' W 073°55'9 7.4
2018-Jan-21 10:20N 40°15' W 073°55'26 7.6
2018-Jan-21 06:53N 39°49' W 073°58'3 7.5
2018-Jan-21 06:29N 39°46' W 073°58'4 7.5
2018-Jan-21 06:00N 39°42' W 074°00'4 7.3
2018-Jan-21 05:29N 39°39' W 074°02'4 7.4
2018-Jan-21 04:59N 39°36' W 074°05'4 7.5
2018-Jan-21 04:29N 39°32' W 074°07'66 4.6
2018-Jan-20 14:00N 39°34' W 075°33'42 8.5
2018-Jan-20 09:05N 39°10' W 076°18'1 8.6
2018-Jan-20 09:00N 39°10' W 076°18'10 8.3
2018-Jan-20 07:49N 39°12' W 076°31'3 9.2
2018-Jan-20 07:30N 39°14' W 076°33'1 2.2
2018-Jan-20 07:00N 39°15' W 076°34'0 0.0
2018-Jan-20 06:30N 39°15' W 076°34'0 0.0
2018-Jan-20 05:55N 39°15' W 076°34'0 0.0
2018-Jan-20 05:28N 39°15' W 076°34'0 0.0
2018-Jan-20 04:59N 39°15' W 076°34'0 0.0
2018-Jan-20 04:29N 39°15' W 076°34'0 0.0
2018-Jan-20 04:00N 39°15' W 076°34'0 0.0
2018-Jan-20 03:30N 39°15' W 076°34'0 0.0
2018-Jan-20 03:00N 39°15' W 076°34'0 0.0
2018-Jan-20 02:30N 39°15' W 076°34'0 0.0
2018-Jan-20 02:01N 39°15' W 076°34'0 0.0
2018-Jan-20 01:30N 39°15' W 076°34'0 0.0
2018-Jan-20 01:00N 39°15' W 076°34'0 0.0
2018-Jan-20 00:30N 39°15' W 076°34'0 0.0
2018-Jan-20 00:00N 39°15' W 076°34'0 0.0
2018-Jan-19 23:28N 39°15' W 076°34'0 0.0
2018-Jan-19 23:00N 39°15' W 076°34'0 0.0
2018-Jan-19 22:30N 39°15' W 076°34'0 0.0
2018-Jan-19 22:00N 39°15' W 076°34'0 0.0
2018-Jan-19 21:31N 39°15' W 076°34'0 0.0
2018-Jan-19 21:01N 39°15' W 076°34'0 0.0
2018-Jan-19 20:31N 39°15' W 076°34'0 0.0
2018-Jan-19 20:01N 39°15' W 076°34'0 0.0
2018-Jan-19 19:31N 39°15' W 076°34'0 0.0
2018-Jan-19 19:00N 39°15' W 076°34'0 0.0
2018-Jan-19 18:31N 39°15' W 076°34'1 1.1
2018-Jan-19 18:00N 39°15' W 076°34'0 0.7
2018-Jan-19 17:20N 39°15' W 076°33'0 0.0
2018-Jan-19 16:58N 39°15' W 076°33'0 0.0
2018-Jan-19 16:31N 39°15' W 076°33'0 0.0
2018-Jan-19 15:59N 39°15' W 076°33'0 0.1
2018-Jan-19 15:30N 39°15' W 076°33'0 0.1
2018-Jan-19 15:00N 39°15' W 076°33'0 0.3
2018-Jan-19 14:31N 39°16' W 076°33'1 2.1
2018-Jan-19 13:58N 39°15' W 076°34'0 0.0
2018-Jan-19 13:29N 39°15' W 076°34'0 0.0
2018-Jan-19 12:59N 39°15' W 076°34'0 0.7
2018-Jan-19 12:31N 39°15' W 076°34'0 0.3
2018-Jan-19 12:00N 39°15' W 076°34'3 5.2
2018-Jan-19 11:30N 39°13' W 076°32'4 7.7
2018-Jan-19 11:00N 39°11' W 076°28'4 9.0
2018-Jan-19 10:31N 39°08' W 076°24'4 8.8
2018-Jan-19 10:00N 39°03' W 076°23'4 8.8
2018-Jan-19 09:31N 38°59' W 076°23'4 8.8
2018-Jan-19 09:01N 38°55' W 076°24'4 8.9
2018-Jan-19 08:30N 38°50' W 076°25'8 8.8
2018-Jan-19 07:39N 38°43' W 076°27'108 8.2
2018-Jan-18 18:28N 36°55' W 076°20'4 8.9
2018-Jan-18 18:00N 36°51' W 076°18'1 2.7
2018-Jan-18 17:30N 36°50' W 076°17'0 0.2
2018-Jan-18 16:50N 36°50' W 076°17'0 0.0
2018-Jan-18 16:30N 36°50' W 076°17'0 0.5
2018-Jan-18 15:59N 36°50' W 076°17'0 0.4
2018-Jan-18 15:17N 36°50' W 076°17'0 0.0
2018-Jan-18 15:00N 36°50' W 076°17'0 0.0
2018-Jan-18 14:30N 36°50' W 076°17'0 0.1
2018-Jan-18 13:57N 36°50' W 076°17'0 0.1
2018-Jan-18 13:25N 36°50' W 076°17'0 0.1
2018-Jan-18 12:58N 36°50' W 076°17'0 0.0
2018-Jan-18 12:07N 36°50' W 076°17'0 0.0
2018-Jan-18 11:55N 36°50' W 076°17'0 0.0
2018-Jan-18 10:50N 36°50' W 076°17'0 0.0
2018-Jan-18 10:29N 36°50' W 076°17'0 0.0
2018-Jan-18 10:00N 36°50' W 076°17'0 0.0
2018-Jan-18 09:30N 36°50' W 076°17'0 0.0
2018-Jan-18 09:00N 36°50' W 076°17'0 0.0
2018-Jan-18 08:28N 36°50' W 076°17'0 0.0
2018-Jan-18 07:58N 36°50' W 076°17'0 0.0
2018-Jan-18 07:28N 36°50' W 076°17'0 0.0
2018-Jan-18 06:59N 36°50' W 076°17'0 0.0
2018-Jan-18 06:29N 36°50' W 076°17'0 0.0
2018-Jan-18 05:50N 36°50' W 076°17'0 0.0
2018-Jan-18 05:30N 36°50' W 076°17'0 0.0
2018-Jan-18 05:00N 36°50' W 076°17'0 0.0
2018-Jan-18 04:30N 36°50' W 076°17'0 0.0
2018-Jan-18 03:58N 36°50' W 076°17'0 0.0
2018-Jan-18 03:28N 36°50' W 076°17'0 0.0
2018-Jan-18 02:55N 36°50' W 076°17'0 0.0
2018-Jan-18 02:29N 36°50' W 076°17'0 0.0
2018-Jan-18 01:59N 36°50' W 076°17'0 0.0
2018-Jan-18 01:29N 36°50' W 076°17'0 0.0
2018-Jan-18 01:00N 36°50' W 076°17'0 0.0
2018-Jan-18 00:00N 36°50' W 076°17'0 0.0
2018-Jan-17 23:57N 36°50' W 076°17'  

Dump ship's entire track history